Time;durP1;ratioP1;P1;durP2;ratioP2;P2;SDS_P1;SDS_P2;PMS_P1;PMS_P2;Temp;Humidity;BMP_temperature;BMP_pressure;BME280_temperature;BME280_humidity;BME280_pressure;Samples;Min_cycle;Max_cycle;Signal;HPM_P1;HPM_P2
2022/06/08 00:02:21;;;;;;;8.27;4.00;;;10.10;99.90;;;;;;5135342;27;19923;-74
2022/06/08 00:04:47;;;;;;;7.45;4.38;;;9.90;99.90;;;;;;5151532;27;20045;-74
2022/06/08 00:07:12;;;;;;;;;;;9.90;99.90;;;;;;5152990;27;20039;-74
2022/06/08 00:09:38;;;;;;;8.88;4.50;;;9.90;99.90;;;;;;5134804;27;19919;-73
2022/06/08 00:12:04;;;;;;;;;;;10.00;99.90;;;;;;5135945;27;20041;-74
2022/06/08 00:14:30;;;;;;;10.48;5.32;;;10.10;99.90;;;;;;5153340;27;19926;-74
2022/06/08 00:16:56;;;;;;;;;;;10.20;99.90;;;;;;5153400;27;20050;-73
2022/06/08 00:19:21;;;;;;;10.00;5.10;;;10.30;99.90;;;;;;5157344;27;20049;-74
2022/06/08 00:21:47;;;;;;;10.15;5.43;;;10.30;99.90;;;;;;5157800;27;20051;-74
2022/06/08 00:24:13;;;;;;;;;;;10.30;99.90;;;;;;5138643;27;20047;-74
2022/06/08 00:26:38;;;;;;;9.65;4.97;;;10.30;99.90;;;;;;5140296;27;19923;-74
2022/06/08 00:29:04;;;;;;;;;;;10.50;99.90;;;;;;5156989;27;20076;-74
2022/06/08 00:31:31;;;;;;;8.27;4.78;;;10.60;99.90;;;;;;5156951;27;19926;-74
2022/06/08 00:33:57;;;;;;;10.48;5.22;;;10.30;99.90;;;;;;5155707;27;20125;-74
2022/06/08 00:36:32;;;;;;;9.55;5.00;;;10.30;99.90;;;;;;5138320;27;20034;-73
2022/06/08 00:38:57;;;;;;;9.85;4.72;;;10.30;99.90;;;;;;5139558;27;20039;-74
2022/06/08 00:41:41;;;;;;;;;;;10.30;99.90;;;;;;5138293;27;20053;-73
2022/06/08 00:44:14;;;;;;;7.05;4.60;;;10.20;99.90;;;;;;5137279;27;19919;-74
2022/06/08 00:46:40;;;;;;;8.15;4.32;;;10.20;99.90;;;;;;5157365;27;20054;-74
2022/06/08 00:49:10;;;;;;;;;;;10.10;99.90;;;;;;5118733;27;20055;-74
2022/06/08 00:51:36;;;;;;;9.25;4.95;;;10.20;99.90;;;;;;5117137;27;20021;-74
2022/06/08 00:54:03;;;;;;;;;;;10.10;99.90;;;;;;5136061;27;20077;-74
2022/06/08 00:56:36;;;;;;;8.05;5.45;;;10.10;99.90;;;;;;5117824;27;19930;-74
2022/06/08 00:59:05;;;;;;;8.02;5.70;;;10.20;99.90;;;;;;5136063;27;20043;-74
2022/06/08 01:01:31;;;;;;;9.95;5.45;;;10.10;99.90;;;;;;5135850;27;20565;-74
2022/06/08 01:04:10;;;;;;;;;;;10.10;99.90;;;;;;5116758;27;20169;-74
2022/06/08 01:06:36;;;;;;;7.85;5.03;;;10.00;99.90;;;;;;5136124;27;20021;-74
2022/06/08 01:09:02;;;;;;;;;;;10.10;99.90;;;;;;5117813;27;20165;-74
2022/06/08 01:11:40;;;;;;;10.63;5.57;;;10.10;99.90;;;;;;5134337;27;19930;-74
2022/06/08 01:14:13;;;;;;;10.25;5.55;;;10.10;99.90;;;;;;5117826;27;20524;-74
2022/06/08 01:16:45;;;;;;;10.23;5.72;;;10.10;99.90;;;;;;5135310;27;20039;-74
2022/06/08 01:19:12;;;;;;;8.77;6.22;;;10.10;99.90;;;;;;5116701;27;20042;-75
2022/06/08 01:21:37;;;;;;;12.40;6.18;;;10.20;99.90;;;;;;5117714;27;20050;-74
2022/06/08 01:24:07;;;;;;;;;;;10.20;99.90;;;;;;5135343;27;20050;-74
2022/06/08 01:26:52;;;;;;;8.25;5.25;;;10.30;99.90;;;;;;5116425;27;20324;-74
2022/06/08 01:29:21;;;;;;;7.25;5.13;;;10.20;99.90;;;;;;5134676;27;20457;-74
2022/06/08 01:32:19;;;;;;;7.65;5.28;;;10.20;99.90;;;;;;5116920;27;20479;-74
2022/06/08 01:34:47;;;;;;;;;;;10.30;99.90;;;;;;5099089;27;20127;-74
2022/06/08 01:37:43;;;;;;;8.60;5.93;;;10.30;99.90;;;;;;5135410;27;20370;-74
2022/06/08 01:40:12;;;;;;;9.25;6.05;;;10.40;99.90;;;;;;5134484;27;20042;-74
2022/06/08 01:42:49;;;;;;;10.63;6.97;;;10.50;99.90;;;;;;5117013;27;20050;-73
2022/06/08 01:45:33;;;;;;;12.07;7.22;;;10.50;99.90;;;;;;5116614;27;20059;-74
2022/06/08 01:48:25;;;;;;;9.55;6.43;;;10.70;99.90;;;;;;5116964;27;20051;-74
2022/06/08 01:50:54;;;;;;;10.95;6.57;;;10.70;99.90;;;;;;5126661;27;20053;-74
2022/06/08 01:53:31;;;;;;;11.88;7.65;;;10.80;99.90;;;;;;5136311;27;20134;-74
2022/06/08 01:56:03;;;;;;;13.50;7.20;;;10.90;99.90;;;;;;5138430;27;20398;-74
2022/06/08 01:58:58;;;;;;;11.75;7.38;;;11.00;99.90;;;;;;5137251;27;20554;-74
2022/06/08 02:01:48;;;;;;;15.18;7.30;;;11.10;99.90;;;;;;5136794;27;20039;-74
2022/06/08 02:04:29;;;;;;;12.88;7.45;;;11.20;99.90;;;;;;5122165;27;20054;-75
2022/06/08 02:07:26;;;;;;;13.73;8.00;;;11.20;99.90;;;;;;5134783;27;20495;-74
2022/06/08 02:10:13;;;;;;;10.53;6.87;;;11.20;99.90;;;;;;5117014;27;20082;-74
2022/06/08 02:12:50;;;;;;;11.88;7.47;;;11.20;99.90;;;;;;5126879;27;20063;-74
2022/06/08 02:15:23;;;;;;;9.68;7.10;;;11.20;99.90;;;;;;5154189;27;20042;-74
2022/06/08 02:17:55;;;;;;;12.63;8.15;;;11.20;99.90;;;;;;5155378;27;20090;-74
2022/06/08 02:20:46;;;;;;;11.25;7.80;;;11.30;99.90;;;;;;5135638;27;20109;-74
2022/06/08 02:23:17;;;;;;;12.43;8.23;;;11.20;99.90;;;;;;5135170;27;20535;-74
2022/06/08 02:25:53;;;;;;;13.40;8.38;;;11.20;99.90;;;;;;5136785;27;20042;-74
2022/06/08 02:28:22;;;;;;;15.82;9.27;;;11.20;99.90;;;;;;5154412;27;20560;-74
2022/06/08 02:31:01;;;;;;;14.27;9.07;;;11.20;99.90;;;;;;5137044;27;20125;-74
2022/06/08 02:36:25;;;;;;;14.52;8.38;;;11.10;99.90;;;;;;5154756;27;20043;-74
2022/06/08 02:38:56;;;;;;;15.38;8.88;;;11.10;99.90;;;;;;5154963;27;20034;-74
2022/06/08 02:41:24;;;;;;;13.00;9.15;;;11.10;99.90;;;;;;5133168;27;20438;-74
2022/06/08 02:43:54;;;;;;;16.30;10.05;;;11.10;99.90;;;;;;5136461;27;20070;-74
2022/06/08 02:46:26;;;;;;;12.60;8.73;;;11.10;99.90;;;;;;5154788;27;20057;-74
2022/06/08 02:48:52;;;;;;;15.23;9.38;;;11.00;99.90;;;;;;5153536;27;20035;-74
2022/06/08 02:51:24;;;;;;;;;;;11.10;99.90;;;;;;5153513;27;20503;-75
2022/06/08 02:53:57;;;;;;;15.93;9.77;;;11.00;99.90;;;;;;5136406;27;19919;-74
2022/06/08 02:56:45;;;;;;;17.05;9.65;;;10.90;99.90;;;;;;5136385;27;20084;-74
2022/06/08 02:59:20;;;;;;;14.18;9.50;;;11.00;99.90;;;;;;5133310;27;20489;-74
2022/06/08 03:02:18;;;;;;;14.48;8.93;;;11.00;99.90;;;;;;5135332;27;20050;-74
2022/06/08 03:04:49;;;;;;;;;;;11.00;99.90;;;;;;5153835;27;20604;-74
2022/06/08 03:07:18;;;;;;;15.57;9.25;;;11.10;99.90;;;;;;5154353;27;19919;-73
2022/06/08 03:09:47;;;;;;;16.00;9.27;;;11.60;99.90;;;;;;5139868;27;20122;-74
2022/06/08 03:12:37;;;;;;;14.35;8.50;;;11.20;99.90;;;;;;5132389;27;20478;-75
2022/06/08 03:15:06;;;;;;;13.20;8.80;;;11.30;99.90;;;;;;5121139;27;20107;-74
2022/06/08 03:17:34;;;;;;;16.48;9.20;;;11.30;99.90;;;;;;5132840;27;20490;-74
2022/06/08 03:20:06;;;;;;;17.95;9.70;;;11.30;99.90;;;;;;5132468;28;20035;-74
2022/06/08 03:22:32;;;;;;;16.38;9.32;;;11.30;99.90;;;;;;5134690;28;20092;-74
2022/06/08 03:24:58;;;;;;;;;;;11.40;99.90;;;;;;5134663;27;20062;-74
2022/06/08 03:27:24;;;;;;;16.45;9.75;;;11.30;99.90;;;;;;5114183;28;19941;-74
2022/06/08 03:29:50;;;;;;;16.17;9.48;;;11.30;99.90;;;;;;5115407;28;20095;-74
2022/06/08 03:32:16;;;;;;;15.40;10.35;;;11.70;99.90;;;;;;5132350;28;20467;-74
2022/06/08 03:34:42;;;;;;;17.13;10.38;;;11.30;99.90;;;;;;5133057;28;20051;-74
2022/06/08 03:37:09;;;;;;;;;;;11.30;99.90;;;;;;5133560;28;20049;-74
2022/06/08 03:39:35;;;;;;;16.60;9.97;;;11.40;99.90;;;;;;5114157;28;19920;-74
2022/06/08 03:42:00;;;;;;;;;;;11.30;99.90;;;;;;5129684;27;20311;-74
2022/06/08 03:44:27;;;;;;;15.82;10.00;;;11.30;99.90;;;;;;5135336;27;19919;-75
2022/06/08 03:47:02;;;;;;;13.20;9.75;;;11.30;99.90;;;;;;5134061;27;20047;-75
2022/06/08 03:49:28;;;;;;;19.15;9.90;;;11.30;99.90;;;;;;5134773;27;20410;-76
2022/06/08 03:51:57;;;;;;;15.07;10.15;;;11.30;99.90;;;;;;5136691;27;20046;-76
2022/06/08 03:54:26;;;;;;;16.15;9.10;;;11.40;99.90;;;;;;5146899;27;20103;-76
2022/06/08 03:56:56;;;;;;;14.23;9.13;;;11.40;99.90;;;;;;5137644;27;20045;-76
2022/06/08 03:59:24;;;;;;;15.93;10.07;;;11.50;99.90;;;;;;5118117;27;20052;-73
2022/06/08 04:01:49;;;;;;;13.63;9.40;;;11.60;99.90;;;;;;5117566;27;20049;-80
2022/06/08 04:04:15;;;;;;;;;;;11.60;99.90;;;;;;5120176;27;20043;-74
2022/06/08 04:06:42;;;;;;;14.93;9.38;;;11.80;99.90;;;;;;5154481;27;19978;-76
2022/06/08 04:09:09;;;;;;;18.48;10.32;;;11.80;99.90;;;;;;5138064;27;20095;-76
2022/06/08 04:11:35;;;;;;;15.77;9.77;;;11.90;99.90;;;;;;5138613;27;20042;-75
2022/06/08 04:14:01;;;;;;;;;;;12.00;99.90;;;;;;5134119;27;20046;-75
2022/06/08 04:16:27;;;;;;;13.60;9.40;;;11.90;99.90;;;;;;5119073;27;19923;-71
2022/06/08 04:18:53;;;;;;;13.93;9.35;;;12.00;99.90;;;;;;5129686;27;20054;-76
2022/06/08 04:21:19;;;;;;;;;;;12.00;99.90;;;;;;5116940;27;20055;-77
2022/06/08 04:23:47;;;;;;;16.48;8.77;;;11.90;99.90;;;;;;5118164;27;19920;-77
2022/06/08 04:26:14;;;;;;;13.38;8.93;;;11.90;99.90;;;;;;5118102;27;20050;-77
2022/06/08 04:28:40;;;;;;;13.70;9.38;;;12.00;99.90;;;;;;5135582;27;20134;-78
2022/06/08 04:31:07;;;;;;;14.85;10.05;;;12.00;99.90;;;;;;5117821;27;20087;-75
2022/06/08 04:33:33;;;;;;;16.02;9.90;;;12.10;99.90;;;;;;5137697;27;20081;-77
2022/06/08 04:35:58;;;;;;;;;;;12.10;99.90;;;;;;5117967;27;20477;-77
2022/06/08 04:38:25;;;;;;;15.40;10.38;;;12.20;99.90;;;;;;5117693;27;19922;-76
2022/06/08 04:40:51;;;;;;;16.65;10.05;;;12.10;99.90;;;;;;5136233;27;20482;-76
2022/06/08 04:43:17;;;;;;;;;;;12.30;99.90;;;;;;5135839;27;20046;-76
2022/06/08 04:45:43;;;;;;;17.88;10.63;;;12.50;99.90;;;;;;5135984;27;20344;-76
2022/06/08 04:48:10;;;;;;;23.15;11.95;;;12.40;99.90;;;;;;5116500;27;20065;-76
2022/06/08 04:50:36;;;;;;;16.50;10.38;;;12.70;99.90;;;;;;5133535;27;20047;-77
2022/06/08 04:53:02;;;;;;;16.70;9.45;;;12.70;99.90;;;;;;5137184;27;20042;-78
2022/06/08 04:55:33;;;;;;;16.98;11.18;;;12.90;99.90;;;;;;5137941;27;20419;-73
2022/06/08 04:58:01;;;;;;;19.52;11.48;;;12.80;99.90;;;;;;5136969;27;20521;-73
2022/06/08 05:00:30;;;;;;;17.15;11.70;;;13.00;99.90;;;;;;5155784;27;20039;-74
2022/06/08 05:02:56;;;;;;;17.38;11.80;;;12.90;99.90;;;;;;5155962;27;20046;-74
2022/06/08 05:05:24;;;;;;;;;;;13.10;99.90;;;;;;5134215;27;20375;-75
2022/06/08 05:07:50;;;;;;;16.85;10.82;;;13.10;99.90;;;;;;5137761;27;19919;-75
2022/06/08 05:10:17;;;;;;;17.95;11.13;;;13.20;99.90;;;;;;5134166;27;20042;-76
2022/06/08 05:12:44;;;;;;;18.38;11.80;;;13.30;99.90;;;;;;5143943;27;20435;-75
2022/06/08 05:15:15;;;;;;;21.40;12.40;;;13.30;99.90;;;;;;5127375;27;20075;-75
2022/06/08 05:17:40;;;;;;;18.48;11.40;;;13.40;99.90;;;;;;5134623;27;20046;-73
2022/06/08 05:20:07;;;;;;;;;;;13.40;99.90;;;;;;5117390;27;20656;-72
2022/06/08 05:22:33;;;;;;;20.55;11.70;;;13.50;99.90;;;;;;5117930;27;19919;-71
2022/06/08 05:25:00;;;;;;;18.83;12.43;;;13.50;99.90;;;;;;5135514;27;20054;-71
2022/06/08 05:27:26;;;;;;;19.52;12.70;;;13.50;99.90;;;;;;5117010;27;20372;-72
2022/06/08 05:29:52;;;;;;;;;;;13.60;99.90;;;;;;5139258;27;20042;-72
2022/06/08 05:32:18;;;;;;;18.13;11.60;;;13.60;99.90;;;;;;5153999;27;19975;-85
2022/06/08 05:34:44;;;;;;;21.58;12.68;;;13.60;99.90;;;;;;5136804;27;20470;-73
2022/06/08 05:37:09;;;;;;;;;;;13.70;99.90;;;;;;5136738;27;20076;-72
2022/06/08 05:39:35;;;;;;;21.02;11.77;;;13.70;99.90;;;;;;5136201;27;19923;-73
2022/06/08 05:42:00;;;;;;;;;;;13.80;99.90;;;;;;5136709;27;20042;-76
2022/06/08 05:44:26;;;;;;;20.77;12.73;;;14.00;99.90;;;;;;5136444;27;19927;-70
2022/06/08 05:46:51;;;;;;;;;;;14.20;99.90;;;;;;5117475;27;20061;-72
2022/06/08 05:49:17;;;;;;;20.63;11.43;;;14.30;99.90;;;;;;5154515;27;19926;-73
2022/06/08 05:51:44;;;;;;;20.95;12.25;;;14.50;99.90;;;;;;5136150;27;20042;-71
2022/06/08 05:54:11;;;;;;;20.73;12.27;;;14.40;99.90;;;;;;5151888;27;20031;-74
2022/06/08 05:56:37;;;;;;;21.88;12.05;;;14.40;99.90;;;;;;5134610;27;20699;-73
2022/06/08 05:59:04;;;;;;;21.42;13.60;;;14.50;99.90;;;;;;5132028;27;20809;-73
2022/06/08 06:01:31;;;;;;;19.85;12.60;;;14.50;99.90;;;;;;5131489;27;20517;-72
2022/06/08 06:03:59;;;;;;;19.83;11.98;;;14.70;99.90;;;;;;5135708;27;20047;-70
2022/06/08 06:06:25;;;;;;;18.30;11.68;;;14.50;99.90;;;;;;5153687;27;20031;-70
2022/06/08 06:08:50;;;;;;;21.35;13.00;;;14.60;99.90;;;;;;5154182;27;20488;-72
2022/06/08 06:11:16;;;;;;;20.27;12.32;;;14.60;99.90;;;;;;5152032;27;20055;-72
2022/06/08 06:13:42;;;;;;;19.25;12.40;;;14.70;99.90;;;;;;5153562;27;20041;-71
2022/06/08 06:16:09;;;;;;;18.80;12.00;;;14.70;99.90;;;;;;5135496;27;20038;-71
2022/06/08 06:18:35;;;;;;;20.73;11.20;;;14.80;99.90;;;;;;5154595;27;20047;-71
2022/06/08 06:21:01;;;;;;;18.77;11.85;;;14.90;99.90;;;;;;5124664;27;20184;-71
2022/06/08 06:23:29;;;;;;;18.75;12.57;;;15.00;99.90;;;;;;5133286;27;20391;-69
2022/06/08 06:25:55;;;;;;;15.65;11.13;;;15.10;99.90;;;;;;5115247;27;20042;-72
2022/06/08 06:28:21;;;;;;;17.80;11.27;;;15.10;99.90;;;;;;5113707;27;20047;-72
2022/06/08 06:30:48;;;;;;;19.10;12.25;;;15.30;99.90;;;;;;5115418;27;20045;-71
2022/06/08 06:33:14;;;;;;;19.27;12.60;;;15.40;99.90;;;;;;5133316;27;20042;-72
2022/06/08 06:35:41;;;;;;;19.05;11.13;;;15.50;99.90;;;;;;5115640;27;20039;-73
2022/06/08 06:38:08;;;;;;;14.52;9.90;;;15.80;99.90;;;;;;5114250;27;20042;-72
2022/06/08 06:40:34;;;;;;;19.48;10.68;;;16.00;99.90;;;;;;5114806;27;20053;-72
2022/06/08 06:43:00;;;;;;;15.93;8.75;;;16.20;99.90;;;;;;5113992;27;20134;-72
2022/06/08 06:45:27;;;;;;;18.10;10.13;;;16.30;99.90;;;;;;5114662;27;20039;-73
2022/06/08 06:47:52;;;;;;;16.23;10.73;;;16.40;99.90;;;;;;5113948;27;20051;-75
2022/06/08 06:50:19;;;;;;;14.75;9.75;;;16.60;99.90;;;;;;5113554;27;20358;-72
2022/06/08 06:52:45;;;;;;;17.00;10.38;;;16.60;99.90;;;;;;5131111;27;20043;-75
2022/06/08 06:55:25;;;;;;;15.55;8.85;;;16.80;99.90;;;;;;5132029;27;20149;-74
2022/06/08 06:57:51;;;;;;;13.02;9.00;;;16.80;99.90;;;;;;5113811;27;20138;-76
2022/06/08 07:00:17;;;;;;;16.52;9.90;;;16.90;99.90;;;;;;5114300;28;20126;-77
2022/06/08 07:02:44;;;;;;;12.50;8.63;;;16.80;99.90;;;;;;5113769;27;20050;-75
2022/06/08 07:05:20;;;;;;;16.17;9.27;;;16.90;99.90;;;;;;5126793;27;20043;-75
2022/06/08 07:07:46;;;;;;;17.35;9.88;;;16.80;99.90;;;;;;5133176;27;20062;-76
2022/06/08 07:10:12;;;;;;;15.95;9.40;;;16.80;99.90;;;;;;5131990;27;20047;-75
2022/06/08 07:12:38;;;;;;;13.80;9.25;;;16.80;99.90;;;;;;5114568;28;20091;-76
2022/06/08 07:15:04;;;;;;;12.95;8.25;;;16.80;99.90;;;;;;5114819;27;20101;-77
2022/06/08 07:17:30;;;;;;;16.27;9.07;;;16.80;99.90;;;;;;5113940;28;20043;-75
2022/06/08 07:19:56;;;;;;;13.88;8.95;;;17.10;99.90;;;;;;5132754;27;20039;-75
2022/06/08 07:22:21;;;;;;;13.25;8.07;;;17.20;99.90;;;;;;5115446;28;20043;-75
2022/06/08 07:24:47;;;;;;;12.95;7.95;;;17.30;99.90;;;;;;5132358;28;20364;-75
2022/06/08 07:27:13;;;;;;;11.70;7.60;;;17.50;99.90;;;;;;5115731;27;20168;-76
2022/06/08 07:29:38;;;;;;;12.80;7.50;;;17.60;99.90;;;;;;5137086;27;20046;-75
2022/06/08 07:32:04;;;;;;;12.13;6.97;;;17.90;99.90;;;;;;5117606;27;20043;-75
2022/06/08 07:34:31;;;;;;;11.63;7.30;;;18.00;99.90;;;;;;5118618;27;20053;-76
2022/06/08 07:36:57;;;;;;;10.68;6.70;;;18.00;99.90;;;;;;5132342;27;20402;-75
2022/06/08 07:39:24;;;;;;;11.73;7.18;;;18.00;99.90;;;;;;5137505;27;20049;-76
2022/06/08 07:41:50;;;;;;;12.75;7.72;;;17.90;99.90;;;;;;5157692;27;20049;-75
2022/06/08 07:44:17;;;;;;;13.50;8.02;;;17.90;99.90;;;;;;5157336;27;20613;-76
2022/06/08 07:46:43;;;;;;;15.10;7.63;;;18.20;99.90;;;;;;5138065;27;20047;-76
2022/06/08 07:52:06;;;;;;;13.07;7.85;;;18.80;99.90;;;;;;5136534;27;20082;-75
2022/06/08 07:54:32;;;;;;;10.18;6.53;;;18.80;99.90;;;;;;5154622;27;20050;-76
2022/06/08 07:56:59;;;;;;;9.10;6.18;;;18.90;99.90;;;;;;5137022;27;20031;-76
2022/06/08 07:59:32;;;;;;;9.95;6.22;;;19.00;99.90;;;;;;5117284;27;20126;-77
2022/06/08 08:01:58;;;;;;;9.18;4.88;;;19.10;99.90;;;;;;5136578;27;20047;-74
2022/06/08 08:04:24;;;;;;;7.72;4.93;;;19.30;99.90;;;;;;5117842;27;20126;-75
2022/06/08 08:06:50;;;;;;;6.68;4.30;;;19.50;99.90;;;;;;5118167;27;20137;-74
2022/06/08 08:09:20;;;;;;;7.25;4.20;;;19.60;99.90;;;;;;5135962;27;20110;-75
2022/06/08 08:11:49;;;;;;;7.38;4.43;;;19.60;99.90;;;;;;5136095;27;20901;-75
2022/06/08 08:14:18;;;;;;;9.32;4.65;;;19.60;99.90;;;;;;5116515;27;20051;-75
2022/06/08 08:16:44;;;;;;;7.35;3.95;;;19.60;99.90;;;;;;5141432;27;20066;-75
2022/06/08 08:19:11;;;;;;;6.68;3.88;;;19.60;99.90;;;;;;5137916;27;20442;-77
2022/06/08 08:21:37;;;;;;;6.97;4.13;;;19.50;99.90;;;;;;5154200;27;20494;-74
2022/06/08 08:24:04;;;;;;;7.18;4.07;;;19.50;99.90;;;;;;5126307;27;20046;-75
2022/06/08 08:26:32;;;;;;;9.15;3.78;;;19.70;99.90;;;;;;5138336;27;20061;-78
2022/06/08 08:28:58;;;;;;;6.65;3.50;;;19.70;99.90;;;;;;5156026;27;20053;-75
2022/06/08 08:31:24;;;;;;;7.78;3.40;;;19.70;99.90;;;;;;5155372;27;20494;-76
2022/06/08 08:33:50;;;;;;;7.20;3.70;;;19.80;99.90;;;;;;5138324;27;20042;-76
2022/06/08 08:36:18;;;;;;;6.15;3.67;;;19.80;99.90;;;;;;5136823;27;20079;-76
2022/06/08 08:38:44;;;;;;;4.85;2.70;;;19.90;99.90;;;;;;5122880;27;20095;-76
2022/06/08 08:43:59;;;;;;;6.15;3.00;;;20.00;99.90;;;;;;5135937;27;20126;-75
2022/06/08 08:46:28;;;;;;;6.45;2.70;;;20.00;99.90;;;;;;5135403;27;20059;-75
2022/06/08 08:49:02;;;;;;;5.60;3.22;;;20.10;99.90;;;;;;5116378;27;20112;-76
2022/06/08 08:51:40;;;;;;;7.13;3.63;;;20.30;99.90;;;;;;5117068;27;20509;-75
2022/06/08 08:54:26;;;;;;;5.20;3.22;;;20.20;99.90;;;;;;5117018;27;20555;-75
2022/06/08 08:56:59;;;;;;;5.38;3.35;;;20.10;99.90;;;;;;5155535;27;20114;-74
2022/06/08 08:59:30;;;;;;;4.88;3.42;;;20.00;99.90;;;;;;5137852;27;20117;-74
2022/06/08 09:02:02;;;;;;;5.68;3.60;;;19.80;99.90;;;;;;5137670;27;20052;-74
2022/06/08 09:04:32;;;;;;;7.00;4.10;;;19.90;99.90;;;;;;5154228;27;20364;-73
2022/06/08 09:07:09;;;;;;;6.15;3.78;;;20.00;99.90;;;;;;5155830;27;20038;-74
2022/06/08 09:09:35;;;;;;;5.88;3.20;;;19.90;99.90;;;;;;5134956;27;20478;-74
2022/06/08 09:12:00;;;;;;;5.53;3.08;;;19.80;99.90;;;;;;5137640;27;20042;-73
2022/06/08 09:14:46;;;;;;;6.15;3.53;;;19.90;99.90;;;;;;5137096;27;20506;-74
2022/06/08 09:17:16;;;;;;;6.97;3.67;;;20.00;99.90;;;;;;5154880;27;20049;-73
2022/06/08 09:19:47;;;;;;;7.55;3.33;;;20.10;99.90;;;;;;5135236;27;20085;-74
2022/06/08 09:22:18;;;;;;;6.90;3.47;;;20.40;99.90;;;;;;5136582;27;20045;-75
2022/06/08 09:25:22;;;;;;;4.93;2.92;;;20.60;99.90;;;;;;5136312;27;20172;-75
2022/06/08 09:27:52;;;;;;;7.07;2.90;;;20.60;99.90;;;;;;5123676;27;20418;-75
2022/06/08 09:30:20;;;;;;;6.30;3.70;;;20.80;99.90;;;;;;5134170;27;20054;-76
2022/06/08 09:32:51;;;;;;;5.82;3.33;;;20.90;99.90;;;;;;5134897;27;20091;-76
2022/06/08 09:35:20;;;;;;;5.07;3.17;;;21.40;99.90;;;;;;5134800;27;20051;-76
2022/06/08 09:37:46;;;;;;;6.45;3.53;;;21.90;99.90;;;;;;5115440;27;20050;-76
2022/06/08 09:40:36;;;;;;;5.75;3.20;;;22.20;99.90;;;;;;5115622;27;20050;-76
2022/06/08 09:43:29;;;;;;;5.50;3.40;;;22.20;99.90;;;;;;5117060;27;20043;-76
2022/06/08 09:46:02;;;;;;;5.85;3.38;;;22.20;99.90;;;;;;5115023;27;20055;-76
2022/06/08 09:52:07;;;;;;;4.90;3.10;;;22.00;99.90;;;;;;5114745;27;20046;-76
2022/06/08 09:54:45;;;;;;;5.63;2.83;;;21.70;99.90;;;;;;5115552;27;20402;-77
2022/06/08 09:57:32;;;;;;;5.68;2.97;;;21.90;99.90;;;;;;5115439;27;20516;-77
2022/06/08 10:00:08;;;;;;;5.90;2.83;;;22.10;99.90;;;;;;5127599;27;20083;-76
2022/06/08 10:02:49;;;;;;;5.13;2.50;;;22.00;99.90;;;;;;5136093;27;20054;-76
2022/06/08 10:05:42;;;;;;;5.13;3.00;;;22.20;99.90;;;;;;5154856;27;20039;-76
2022/06/08 10:08:28;;;;;;;4.88;3.20;;;22.40;99.90;;;;;;5135998;27;20053;-78
2022/06/08 10:11:41;;;;;;;5.77;2.93;;;22.60;99.90;;;;;;5154633;27;20080;-76
2022/06/08 10:14:14;;;;;;;6.03;2.97;;;22.70;99.90;;;;;;5133660;27;20321;-77
2022/06/08 10:16:45;;;;;;;3.90;2.60;;;22.30;99.90;;;;;;5133818;27;20039;-78
2022/06/08 10:19:17;;;;;;;5.57;3.15;;;21.90;99.90;;;;;;5133273;27;20592;-77
2022/06/08 10:21:46;;;;;;;6.53;3.45;;;21.70;99.90;;;;;;5133028;27;20035;-74
2022/06/08 10:24:17;;;;;;;4.82;2.80;;;21.50;99.90;;;;;;5134039;27;20050;-74
2022/06/08 10:26:49;;;;;;;4.63;3.20;;;21.20;99.90;;;;;;5121569;27;20039;-70
2022/06/08 10:29:25;;;;;;;4.80;3.10;;;21.00;99.90;;;;;;5135247;27;20402;-73
2022/06/08 10:31:56;;;;;;;6.53;3.65;;;21.00;99.90;;;;;;5135721;27;20183;-73
2022/06/08 10:34:27;;;;;;;6.80;3.60;;;20.90;99.90;;;;;;5134667;27;20059;-74
2022/06/08 10:36:58;;;;;;;7.78;3.85;;;20.80;99.90;;;;;;5135025;27;20400;-73
2022/06/08 10:39:30;;;;;;;6.00;3.70;;;20.80;99.90;;;;;;5135443;27;20042;-70
2022/06/08 10:45:00;;;;;;;7.47;4.50;;;20.70;99.90;;;;;;5135719;27;20050;-71
2022/06/08 10:47:34;;;;;;;6.10;3.90;;;20.60;99.90;;;;;;5153964;27;20050;-71
2022/06/08 10:50:00;;;;;;;6.53;4.03;;;20.80;99.90;;;;;;5153144;27;20091;-71
2022/06/08 10:52:40;;;;;;;6.78;4.72;;;21.00;99.90;;;;;;5117461;27;20038;-71
2022/06/08 10:55:17;;;;;;;7.20;4.68;;;21.20;99.90;;;;;;5132437;27;20391;-72
2022/06/08 10:57:52;;;;;;;8.02;5.28;;;21.30;99.90;;;;;;5133122;27;20039;-73
2022/06/08 11:00:24;;;;;;;8.00;4.25;;;21.40;99.90;;;;;;5132624;27;20050;-77
2022/06/08 11:02:59;;;;;;;6.82;4.80;;;21.30;99.90;;;;;;5131519;27;20088;-77
2022/06/08 11:05:33;;;;;;;7.63;4.85;;;21.20;99.90;;;;;;5134300;27;20095;-79
2022/06/08 11:07:59;;;;;;;6.72;4.53;;;21.10;99.90;;;;;;5114595;28;20411;-78
2022/06/08 11:10:50;;;;;;;7.80;5.07;;;21.10;99.90;;;;;;5132174;27;20067;-73
2022/06/08 11:13:22;;;;;;;7.35;4.88;;;21.10;99.90;;;;;;5132351;27;20550;-72
2022/06/08 11:15:59;;;;;;;6.10;4.05;;;20.70;99.90;;;;;;5132801;27;20390;-72
2022/06/08 11:18:37;;;;;;;7.20;4.50;;;20.40;99.90;;;;;;5120815;27;20047;-72
2022/06/08 11:21:24;;;;;;;7.30;4.45;;;20.20;99.90;;;;;;5119036;27;20047;-72
2022/06/08 11:24:01;;;;;;;7.07;4.53;;;20.20;99.90;;;;;;5113825;28;20046;-73
2022/06/08 11:26:38;;;;;;;6.13;4.78;;;20.20;99.90;;;;;;5114486;28;20051;-72
2022/06/08 11:29:30;;;;;;;9.07;5.32;;;20.10;99.90;;;;;;5132770;28;20063;-71
2022/06/08 11:31:57;;;;;;;9.52;5.45;;;20.10;99.90;;;;;;5129003;27;20055;-72
2022/06/08 11:34:32;;;;;;;10.23;6.43;;;20.10;99.90;;;;;;5114178;28;20051;-73
2022/06/08 11:37:28;;;;;;;7.50;5.15;;;20.00;99.90;;;;;;5132081;28;20039;-72
2022/06/08 11:40:00;;;;;;;8.80;5.90;;;20.00;99.90;;;;;;5114296;28;20047;-73
2022/06/08 11:42:37;;;;;;;7.72;5.80;;;20.00;99.90;;;;;;5132551;28;20035;-72
2022/06/08 11:45:23;;;;;;;8.35;5.50;;;20.30;99.90;;;;;;5113058;28;20143;-72
2022/06/08 11:47:50;;;;;;;8.40;6.00;;;20.50;99.90;;;;;;5134626;27;20051;-73
2022/06/08 11:50:23;;;;;;;9.80;6.35;;;20.70;99.90;;;;;;5124026;28;20062;-74
2022/06/08 11:53:01;;;;;;;9.85;5.90;;;20.60;99.90;;;;;;5114847;27;20070;-71
2022/06/08 11:55:29;;;;;;;7.82;5.82;;;20.50;99.90;;;;;;5115868;27;20054;-74
2022/06/08 11:58:08;;;;;;;13.00;6.63;;;20.40;99.90;;;;;;5132297;28;20498;-73
2022/06/08 12:00:53;;;;;;;10.80;6.78;;;20.30;99.90;;;;;;5114413;28;20096;-74
2022/06/08 12:03:40;;;;;;;9.68;6.57;;;20.00;99.90;;;;;;5113555;28;20474;-74
2022/06/08 12:06:33;;;;;;;7.90;6.00;;;19.90;99.90;;;;;;5113258;28;20047;-75
2022/06/08 12:09:14;;;;;;;8.18;5.35;;;19.60;99.90;;;;;;5137865;27;20099;-72
2022/06/08 12:11:43;;;;;;;8.50;6.00;;;19.30;99.90;;;;;;5148058;27;20041;-74
2022/06/08 12:14:28;;;;;;;9.15;6.75;;;19.10;99.90;;;;;;5134048;27;20112;-75
2022/06/08 12:17:08;;;;;;;10.55;7.70;;;18.90;99.90;;;;;;5118005;27;20168;-71
2022/06/08 12:19:46;;;;;;;9.65;6.85;;;18.80;99.90;;;;;;5135128;27;20142;-73
2022/06/08 12:22:25;;;;;;;10.40;7.90;;;18.80;99.90;;;;;;5121488;27;20078;-73
2022/06/08 12:25:09;;;;;;;11.90;9.02;;;18.80;99.90;;;;;;5156619;27;20091;-72
2022/06/08 12:27:45;;;;;;;12.05;8.88;;;18.90;99.90;;;;;;5117896;27;20039;-74
2022/06/08 12:30:19;;;;;;;;;;;19.20;99.90;;;;;;5117301;27;20043;-71
2022/06/08 12:33:22;;;;;;;13.38;11.35;;;19.30;99.90;;;;;;5117068;27;19952;-76
2022/06/08 12:35:52;;;;;;;17.52;11.85;;;19.60;99.90;;;;;;5117357;27;20047;-73
2022/06/08 12:38:26;;;;;;;16.23;13.00;;;19.80;99.90;;;;;;5131112;27;20046;-75
2022/06/08 12:41:13;;;;;;;15.05;12.27;;;19.90;99.90;;;;;;5135149;27;20078;-74
2022/06/08 12:43:48;;;;;;;17.85;14.60;;;19.80;99.90;;;;;;5137009;27;20046;-75
2022/06/08 12:46:13;;;;;;;13.90;10.30;;;19.60;99.90;;;;;;5137251;27;20089;-72
2022/06/08 12:48:48;;;;;;;10.40;7.40;;;19.30;99.90;;;;;;5131674;27;20067;-75
2022/06/08 12:51:42;;;;;;;7.28;4.15;;;18.90;99.90;;;;;;5140513;27;20050;-76
2022/06/08 12:54:17;;;;;;;7.40;3.50;;;18.50;99.90;;;;;;5119993;27;20058;-72
2022/06/08 12:56:45;;;;;;;6.88;3.72;;;18.20;99.90;;;;;;5135850;27;20050;-74
2022/06/08 12:59:11;;;;;;;5.85;4.18;;;18.00;99.90;;;;;;5143728;27;20478;-74
2022/06/08 13:01:37;;;;;;;6.72;4.15;;;18.00;99.90;;;;;;5154293;27;20085;-79
2022/06/08 13:04:04;;;;;;;9.00;4.90;;;18.00;99.90;;;;;;5137255;27;20035;-79
2022/06/08 13:06:30;;;;;;;6.20;3.88;;;18.10;99.90;;;;;;5137385;27;20051;-77
2022/06/08 13:08:56;;;;;;;5.38;3.55;;;18.00;99.90;;;;;;5136654;27;20074;-76
2022/06/08 13:11:24;;;;;;;7.40;4.25;;;17.90;99.90;;;;;;5134313;27;20097;-81
2022/06/08 13:13:51;;;;;;;5.75;3.97;;;17.90;99.90;;;;;;5127165;27;20126;-77
2022/06/08 13:16:23;;;;;;;7.07;3.47;;;17.80;99.90;;;;;;5135972;27;20526;-79
2022/06/08 13:18:50;;;;;;;6.18;3.38;;;17.70;99.90;;;;;;5153739;27;20092;-74
2022/06/08 13:21:17;;;;;;;5.47;3.20;;;17.70;99.90;;;;;;5124458;27;20052;-84
2022/06/08 13:23:43;;;;;;;6.65;3.05;;;17.60;99.90;;;;;;5125399;27;20047;-76
2022/06/08 13:26:20;;;;;;;5.47;3.05;;;17.60;99.90;;;;;;5129443;27;20078;-78